sensor_id;sensor_type;location;lat;lon;timestamp;pressure;altitude;pressure_sealevel;temperature;humidity
57068;BME280;43391;47.448;18.904;2023-05-23T00:02:11;99462.19;;;13.84;100.00
57068;BME280;43391;47.448;18.904;2023-05-23T00:04:38;99457.47;;;13.76;100.00
57068;BME280;43391;47.448;18.904;2023-05-23T00:07:03;99461.63;;;13.66;100.00
57068;BME280;43391;47.448;18.904;2023-05-23T00:09:29;99458.38;;;13.62;100.00
57068;BME280;43391;47.448;18.904;2023-05-23T00:11:54;99452.44;;;13.60;100.00
57068;BME280;43391;47.448;18.904;2023-05-23T00:14:20;99449.09;;;13.58;100.00
57068;BME280;43391;47.448;18.904;2023-05-23T00:16:46;99458.78;;;13.56;100.00
57068;BME280;43391;47.448;18.904;2023-05-23T00:19:14;99452.72;;;13.55;100.00
57068;BME280;43391;47.448;18.904;2023-05-23T00:21:40;99450.44;;;13.51;100.00
57068;BME280;43391;47.448;18.904;2023-05-23T00:24:06;99454.69;;;13.52;100.00
57068;BME280;43391;47.448;18.904;2023-05-23T00:26:31;99452.94;;;13.52;100.00
57068;BME280;43391;47.448;18.904;2023-05-23T00:28:57;99455.56;;;13.52;100.00
57068;BME280;43391;47.448;18.904;2023-05-23T00:31:23;99449.41;;;13.53;100.00
57068;BME280;43391;47.448;18.904;2023-05-23T00:33:48;99452.94;;;13.52;100.00
57068;BME280;43391;47.448;18.904;2023-05-23T00:36:14;99451.75;;;13.44;100.00
57068;BME280;43391;47.448;18.904;2023-05-23T00:38:39;99452.03;;;13.39;100.00
57068;BME280;43391;47.448;18.904;2023-05-23T00:41:05;99457.25;;;13.39;100.00
57068;BME280;43391;47.448;18.904;2023-05-23T00:43:30;99452.03;;;13.39;100.00
57068;BME280;43391;47.448;18.904;2023-05-23T00:45:56;99454.63;;;13.39;100.00
57068;BME280;43391;47.448;18.904;2023-05-23T00:48:23;99460.88;;;13.36;100.00
57068;BME280;43391;47.448;18.904;2023-05-23T00:50:49;99451.56;;;13.32;100.00
57068;BME280;43391;47.448;18.904;2023-05-23T00:53:15;99456.91;;;13.31;100.00
57068;BME280;43391;47.448;18.904;2023-05-23T00:55:41;99451.78;;;13.29;100.00
57068;BME280;43391;47.448;18.904;2023-05-23T00:58:07;99452.72;;;13.28;100.00
57068;BME280;43391;47.448;18.904;2023-05-23T01:00:32;99461.59;;;13.25;100.00
57068;BME280;43391;47.448;18.904;2023-05-23T01:02:59;99453.00;;;13.23;100.00
57068;BME280;43391;47.448;18.904;2023-05-23T01:05:25;99459.56;;;13.16;100.00
57068;BME280;43391;47.448;18.904;2023-05-23T01:07:51;99455.66;;;13.09;100.00
57068;BME280;43391;47.448;18.904;2023-05-23T01:10:20;99456.41;;;13.11;100.00
57068;BME280;43391;47.448;18.904;2023-05-23T01:15:37;99452.31;;;13.07;100.00
57068;BME280;43391;47.448;18.904;2023-05-23T01:20:58;99440.78;;;13.11;100.00
57068;BME280;43391;47.448;18.904;2023-05-23T01:23:52;99445.97;;;13.11;100.00
57068;BME280;43391;47.448;18.904;2023-05-23T01:29:29;99441.66;;;13.24;100.00
57068;BME280;43391;47.448;18.904;2023-05-23T01:31:57;99436.34;;;13.26;100.00
57068;BME280;43391;47.448;18.904;2023-05-23T01:34:23;99433.00;;;13.24;100.00
57068;BME280;43391;47.448;18.904;2023-05-23T01:36:49;99434.66;;;13.25;100.00
57068;BME280;43391;47.448;18.904;2023-05-23T01:39:18;99426.00;;;13.24;100.00
57068;BME280;43391;47.448;18.904;2023-05-23T01:41:43;99421.94;;;13.20;100.00
57068;BME280;43391;47.448;18.904;2023-05-23T01:44:08;99424.84;;;13.15;100.00
57068;BME280;43391;47.448;18.904;2023-05-23T01:46:34;99425.03;;;13.12;100.00
57068;BME280;43391;47.448;18.904;2023-05-23T01:49:04;99425.41;;;13.06;100.00
57068;BME280;43391;47.448;18.904;2023-05-23T01:51:31;99423.97;;;13.02;100.00
57068;BME280;43391;47.448;18.904;2023-05-23T01:53:58;99430.28;;;12.98;100.00
57068;BME280;43391;47.448;18.904;2023-05-23T01:56:26;99425.09;;;12.98;100.00
57068;BME280;43391;47.448;18.904;2023-05-23T01:58:51;99415.78;;;12.94;100.00
57068;BME280;43391;47.448;18.904;2023-05-23T02:01:17;99419.25;;;12.94;100.00
57068;BME280;43391;47.448;18.904;2023-05-23T02:03:43;99418.47;;;12.92;100.00
57068;BME280;43391;47.448;18.904;2023-05-23T02:06:09;99415.06;;;12.92;100.00
57068;BME280;43391;47.448;18.904;2023-05-23T02:08:34;99415.06;;;12.92;100.00
57068;BME280;43391;47.448;18.904;2023-05-23T02:11:00;99415.00;;;12.79;100.00
57068;BME280;43391;47.448;18.904;2023-05-23T02:13:25;99421.13;;;12.78;100.00
57068;BME280;43391;47.448;18.904;2023-05-23T02:15:50;99412.78;;;12.72;100.00
57068;BME280;43391;47.448;18.904;2023-05-23T02:18:16;99414.53;;;12.72;100.00
57068;BME280;43391;47.448;18.904;2023-05-23T02:20:42;99416.41;;;12.70;100.00
57068;BME280;43391;47.448;18.904;2023-05-23T02:23:08;99419.50;;;12.62;100.00
57068;BME280;43391;47.448;18.904;2023-05-23T02:25:33;99415.75;;;12.66;100.00
57068;BME280;43391;47.448;18.904;2023-05-23T02:27:58;99413.97;;;12.67;100.00
57068;BME280;43391;47.448;18.904;2023-05-23T02:30:24;99418.16;;;12.69;100.00
57068;BME280;43391;47.448;18.904;2023-05-23T02:32:49;99413.03;;;12.68;100.00
57068;BME280;43391;47.448;18.904;2023-05-23T02:35:15;99411.47;;;12.65;100.00
57068;BME280;43391;47.448;18.904;2023-05-23T02:37:41;99410.44;;;12.68;100.00
57068;BME280;43391;47.448;18.904;2023-05-23T02:40:07;99410.34;;;12.69;100.00
57068;BME280;43391;47.448;18.904;2023-05-23T02:42:33;99405.06;;;12.71;100.00
57068;BME280;43391;47.448;18.904;2023-05-23T02:44:58;99411.84;;;12.73;100.00
57068;BME280;43391;47.448;18.904;2023-05-23T02:47:23;99411.94;;;12.72;100.00
57068;BME280;43391;47.448;18.904;2023-05-23T02:49:49;99408.47;;;12.71;100.00
57068;BME280;43391;47.448;18.904;2023-05-23T02:52:14;99411.19;;;12.70;100.00
57068;BME280;43391;47.448;18.904;2023-05-23T02:54:41;99408.38;;;12.73;100.00
57068;BME280;43391;47.448;18.904;2023-05-23T02:57:06;99409.16;;;12.75;100.00
57068;BME280;43391;47.448;18.904;2023-05-23T02:59:31;99404.28;;;12.69;100.00
57068;BME280;43391;47.448;18.904;2023-05-23T03:01:57;99407.38;;;12.61;100.00
57068;BME280;43391;47.448;18.904;2023-05-23T03:04:22;99403.19;;;12.58;100.00
57068;BME280;43391;47.448;18.904;2023-05-23T03:06:48;99400.59;;;12.58;100.00
57068;BME280;43391;47.448;18.904;2023-05-23T03:09:14;99404.97;;;12.58;100.00
57068;BME280;43391;47.448;18.904;2023-05-23T03:11:41;99409.72;;;12.51;100.00
57068;BME280;43391;47.448;18.904;2023-05-23T03:14:06;99407.03;;;12.53;100.00
57068;BME280;43391;47.448;18.904;2023-05-23T03:16:31;99403.66;;;12.51;100.00
57068;BME280;43391;47.448;18.904;2023-05-23T03:18:57;99411.59;;;12.49;100.00
57068;BME280;43391;47.448;18.904;2023-05-23T03:21:22;99411.78;;;12.46;100.00
57068;BME280;43391;47.448;18.904;2023-05-23T03:23:48;99410.28;;;12.42;100.00
57068;BME280;43391;47.448;18.904;2023-05-23T03:26:14;99414.66;;;12.41;100.00
57068;BME280;43391;47.448;18.904;2023-05-23T03:28:39;99414.84;;;12.38;100.00
57068;BME280;43391;47.448;18.904;2023-05-23T03:31:05;99413.56;;;12.31;100.00
57068;BME280;43391;47.448;18.904;2023-05-23T03:33:30;99409.16;;;12.31;100.00
57068;BME280;43391;47.448;18.904;2023-05-23T03:35:55;99408.63;;;12.41;100.00
57068;BME280;43391;47.448;18.904;2023-05-23T03:38:21;99399.88;;;12.42;100.00
57068;BME280;43391;47.448;18.904;2023-05-23T03:40:47;99400.97;;;12.52;100.00
57068;BME280;43391;47.448;18.904;2023-05-23T03:43:12;99404.03;;;12.59;100.00
57068;BME280;43391;47.448;18.904;2023-05-23T03:45:38;99407.50;;;12.59;100.00
57068;BME280;43391;47.448;18.904;2023-05-23T03:48:03;99409.16;;;12.60;100.00
57068;BME280;43391;47.448;18.904;2023-05-23T03:50:28;99410.09;;;12.59;100.00
57068;BME280;43391;47.448;18.904;2023-05-23T03:52:54;99407.13;;;12.51;100.00
57068;BME280;43391;47.448;18.904;2023-05-23T03:55:20;99415.66;;;12.53;100.00
57068;BME280;43391;47.448;18.904;2023-05-23T03:57:47;99406.00;;;12.55;100.00
57068;BME280;43391;47.448;18.904;2023-05-23T04:00:13;99403.41;;;12.55;100.00
57068;BME280;43391;47.448;18.904;2023-05-23T04:02:39;99407.69;;;12.56;100.00
57068;BME280;43391;47.448;18.904;2023-05-23T04:05:05;99401.34;;;12.60;100.00
57068;BME280;43391;47.448;18.904;2023-05-23T04:07:31;99409.16;;;12.60;100.00
57068;BME280;43391;47.448;18.904;2023-05-23T04:09:59;99404.03;;;12.73;100.00
57068;BME280;43391;47.448;18.904;2023-05-23T04:12:24;99411.28;;;12.83;100.00
57068;BME280;43391;47.448;18.904;2023-05-23T04:14:50;99409.78;;;12.79;100.00
57068;BME280;43391;47.448;18.904;2023-05-23T04:17:15;99410.41;;;12.82;100.00
57068;BME280;43391;47.448;18.904;2023-05-23T04:19:40;99413.97;;;12.81;100.00
57068;BME280;43391;47.448;18.904;2023-05-23T04:22:06;99407.63;;;12.85;100.00
57068;BME280;43391;47.448;18.904;2023-05-23T04:24:31;99407.56;;;13.00;100.00
57068;BME280;43391;47.448;18.904;2023-05-23T04:26:57;99406.75;;;12.99;100.00
57068;BME280;43391;47.448;18.904;2023-05-23T04:29:23;99406.53;;;13.02;100.00
57068;BME280;43391;47.448;18.904;2023-05-23T04:31:50;99411.47;;;13.07;100.00
57068;BME280;43391;47.448;18.904;2023-05-23T04:34:15;99408.56;;;13.12;100.00
57068;BME280;43391;47.448;18.904;2023-05-23T04:36:41;99413.19;;;13.21;100.00
57068;BME280;43391;47.448;18.904;2023-05-23T04:39:08;99408.22;;;13.31;100.00
57068;BME280;43391;47.448;18.904;2023-05-23T04:41:34;99416.56;;;13.36;100.00
57068;BME280;43391;47.448;18.904;2023-05-23T04:44:00;99415.25;;;13.44;100.00
57068;BME280;43391;47.448;18.904;2023-05-23T04:46:26;99416.53;;;13.51;100.00
57068;BME280;43391;47.448;18.904;2023-05-23T04:48:52;99417.06;;;13.56;100.00
57068;BME280;43391;47.448;18.904;2023-05-23T04:51:19;99416.88;;;13.59;100.00
57068;BME280;43391;47.448;18.904;2023-05-23T04:53:46;99417.28;;;13.66;100.00
57068;BME280;43391;47.448;18.904;2023-05-23T04:56:11;99413.13;;;13.76;100.00
57068;BME280;43391;47.448;18.904;2023-05-23T04:58:37;99411.66;;;13.85;100.00
57068;BME280;43391;47.448;18.904;2023-05-23T05:01:04;99413.66;;;13.94;100.00
57068;BME280;43391;47.448;18.904;2023-05-23T05:03:30;99419.13;;;14.04;100.00
57068;BME280;43391;47.448;18.904;2023-05-23T05:05:56;99411.56;;;14.13;100.00
57068;BME280;43391;47.448;18.904;2023-05-23T05:08:21;99413.97;;;14.29;100.00
57068;BME280;43391;47.448;18.904;2023-05-23T05:10:47;99407.28;;;14.38;100.00
57068;BME280;43391;47.448;18.904;2023-05-23T05:13:13;99410.41;;;14.43;100.00
57068;BME280;43391;47.448;18.904;2023-05-23T05:15:39;99408.41;;;14.46;100.00
57068;BME280;43391;47.448;18.904;2023-05-23T05:18:05;99408.59;;;14.56;100.00
57068;BME280;43391;47.448;18.904;2023-05-23T05:20:30;99416.63;;;14.66;100.00
57068;BME280;43391;47.448;18.904;2023-05-23T05:22:56;99407.94;;;14.79;100.00
57068;BME280;43391;47.448;18.904;2023-05-23T05:25:22;99416.34;;;14.95;100.00
57068;BME280;43391;47.448;18.904;2023-05-23T05:27:48;99408.91;;;15.02;100.00
57068;BME280;43391;47.448;18.904;2023-05-23T05:30:13;99406.34;;;15.13;100.00
57068;BME280;43391;47.448;18.904;2023-05-23T05:32:39;99413.06;;;15.29;100.00
57068;BME280;43391;47.448;18.904;2023-05-23T05:35:04;99423.94;;;15.47;100.00
57068;BME280;43391;47.448;18.904;2023-05-23T05:37:31;99415.81;;;15.63;100.00
57068;BME280;43391;47.448;18.904;2023-05-23T05:39:57;99414.31;;;15.84;100.00
57068;BME280;43391;47.448;18.904;2023-05-23T05:42:23;99416.84;;;15.97;100.00
57068;BME280;43391;47.448;18.904;2023-05-23T05:44:49;99416.75;;;16.10;100.00
57068;BME280;43391;47.448;18.904;2023-05-23T05:47:15;99411.53;;;16.21;100.00
57068;BME280;43391;47.448;18.904;2023-05-23T05:49:40;99412.72;;;16.28;100.00
57068;BME280;43391;47.448;18.904;2023-05-23T05:52:06;99416.03;;;16.42;100.00
57068;BME280;43391;47.448;18.904;2023-05-23T05:54:32;99416.38;;;16.60;100.00
57068;BME280;43391;47.448;18.904;2023-05-23T05:56:57;99412.63;;;16.85;100.00
57068;BME280;43391;47.448;18.904;2023-05-23T05:59:23;99418.44;;;17.12;100.00
57068;BME280;43391;47.448;18.904;2023-05-23T06:01:48;99415.88;;;17.33;100.00
57068;BME280;43391;47.448;18.904;2023-05-23T06:04:16;99418.34;;;17.46;100.00
57068;BME280;43391;47.448;18.904;2023-05-23T06:06:41;99410.00;;;17.62;100.00
57068;BME280;43391;47.448;18.904;2023-05-23T06:09:06;99415.38;;;17.82;100.00
57068;BME280;43391;47.448;18.904;2023-05-23T06:11:32;99409.38;;;17.91;100.00
57068;BME280;43391;47.448;18.904;2023-05-23T06:13:58;99408.44;;;18.02;99.04
57068;BME280;43391;47.448;18.904;2023-05-23T06:16:23;99414.59;;;18.13;96.17
57068;BME280;43391;47.448;18.904;2023-05-23T06:18:48;99410.25;;;18.33;95.29
57068;BME280;43391;47.448;18.904;2023-05-23T06:21:14;99417.22;;;18.44;96.21
57068;BME280;43391;47.448;18.904;2023-05-23T06:23:39;99411.59;;;18.58;98.04
57068;BME280;43391;47.448;18.904;2023-05-23T06:26:05;99415.66;;;18.72;97.59
57068;BME280;43391;47.448;18.904;2023-05-23T06:28:36;99418.56;;;18.89;96.18
57068;BME280;43391;47.448;18.904;2023-05-23T06:31:01;99410.44;;;19.02;92.58
57068;BME280;43391;47.448;18.904;2023-05-23T06:33:27;99415.47;;;19.15;92.27
57068;BME280;43391;47.448;18.904;2023-05-23T06:35:52;99410.22;;;19.35;90.27
57068;BME280;43391;47.448;18.904;2023-05-23T06:38:17;99415.19;;;19.48;88.74
57068;BME280;43391;47.448;18.904;2023-05-23T06:40:43;99414.06;;;19.60;88.85
57068;BME280;43391;47.448;18.904;2023-05-23T06:43:08;99418.59;;;19.78;86.81
57068;BME280;43391;47.448;18.904;2023-05-23T06:45:33;99407.59;;;19.92;86.32
57068;BME280;43391;47.448;18.904;2023-05-23T06:48:00;99413.56;;;20.04;86.83
57068;BME280;43391;47.448;18.904;2023-05-23T06:50:25;99408.50;;;20.21;86.29
57068;BME280;43391;47.448;18.904;2023-05-23T06:52:50;99403.31;;;20.39;86.03
57068;BME280;43391;47.448;18.904;2023-05-23T06:55:16;99404.34;;;20.56;86.39
57068;BME280;43391;47.448;18.904;2023-05-23T06:57:43;99405.19;;;20.75;82.46
57068;BME280;43391;47.448;18.904;2023-05-23T07:00:09;99398.78;;;20.88;82.96
57068;BME280;43391;47.448;18.904;2023-05-23T07:02:35;99405.22;;;20.93;81.14
57068;BME280;43391;47.448;18.904;2023-05-23T07:05:01;99400.72;;;21.04;80.09
57068;BME280;43391;47.448;18.904;2023-05-23T07:07:26;99401.19;;;21.17;81.64
57068;BME280;43391;47.448;18.904;2023-05-23T07:09:51;99401.84;;;21.19;82.28
57068;BME280;43391;47.448;18.904;2023-05-23T07:12:17;99406.06;;;21.30;78.80
57068;BME280;43391;47.448;18.904;2023-05-23T07:14:42;99399.72;;;21.41;79.22
57068;BME280;43391;47.448;18.904;2023-05-23T07:17:07;99397.38;;;21.56;78.12
57068;BME280;43391;47.448;18.904;2023-05-23T07:19:33;99393.34;;;21.70;75.68
57068;BME280;43391;47.448;18.904;2023-05-23T07:21:58;99383.22;;;21.84;76.72
57068;BME280;43391;47.448;18.904;2023-05-23T07:24:23;99385.94;;;22.00;78.60
57068;BME280;43391;47.448;18.904;2023-05-23T07:26:49;99388.19;;;22.22;78.50
57068;BME280;43391;47.448;18.904;2023-05-23T07:29:14;99398.00;;;22.38;nan
57068;BME280;43391;47.448;18.904;2023-05-23T07:31:40;99395.88;;;22.41;76.58
57068;BME280;43391;47.448;18.904;2023-05-23T07:34:05;99389.78;;;22.49;74.64
57068;BME280;43391;47.448;18.904;2023-05-23T07:36:30;99398.59;;;22.58;78.28
57068;BME280;43391;47.448;18.904;2023-05-23T07:38:58;99390.69;;;22.66;76.52
57068;BME280;43391;47.448;18.904;2023-05-23T07:41:23;99398.50;;;22.85;76.46
57068;BME280;43391;47.448;18.904;2023-05-23T07:43:49;99394.53;;;22.97;77.68
57068;BME280;43391;47.448;18.904;2023-05-23T07:46:14;99391.75;;;23.15;76.28
57068;BME280;43391;47.448;18.904;2023-05-23T07:48:40;99395.44;;;23.39;76.14
57068;BME280;43391;47.448;18.904;2023-05-23T07:51:06;99387.00;;;23.52;75.09
57068;BME280;43391;47.448;18.904;2023-05-23T07:53:31;99393.75;;;23.71;73.46
57068;BME280;43391;47.448;18.904;2023-05-23T07:55:56;99392.69;;;23.89;73.29
57068;BME280;43391;47.448;18.904;2023-05-23T07:58:22;99391.06;;;23.88;72.60
57068;BME280;43391;47.448;18.904;2023-05-23T08:00:47;99388.72;;;23.93;68.88
57068;BME280;43391;47.448;18.904;2023-05-23T08:03:13;99386.22;;;24.00;68.68
57068;BME280;43391;47.448;18.904;2023-05-23T08:05:38;99388.50;;;24.03;67.23
57068;BME280;43391;47.448;18.904;2023-05-23T08:08:03;99388.03;;;24.08;67.43
57068;BME280;43391;47.448;18.904;2023-05-23T08:10:29;99382.22;;;24.12;67.19
57068;BME280;43391;47.448;18.904;2023-05-23T08:12:54;99388.16;;;24.23;66.05
57068;BME280;43391;47.448;18.904;2023-05-23T08:15:19;99381.50;;;24.27;65.99
57068;BME280;43391;47.448;18.904;2023-05-23T08:17:47;99387.47;;;24.29;65.65
57068;BME280;43391;47.448;18.904;2023-05-23T08:20:13;99384.09;;;24.44;64.95
57068;BME280;43391;47.448;18.904;2023-05-23T08:22:39;99387.41;;;24.69;64.83
57068;BME280;43391;47.448;18.904;2023-05-23T08:25:04;99381.06;;;24.78;63.89
57068;BME280;43391;47.448;18.904;2023-05-23T08:27:30;99385.91;;;24.75;64.63
57068;BME280;43391;47.448;18.904;2023-05-23T08:29:55;99383.50;;;24.88;63.22
57068;BME280;43391;47.448;18.904;2023-05-23T08:32:21;99388.56;;;24.75;64.55
57068;BME280;43391;47.448;18.904;2023-05-23T08:34:46;99386.59;;;24.68;61.61
57068;BME280;43391;47.448;18.904;2023-05-23T08:37:11;99388.16;;;24.54;62.88
57068;BME280;43391;47.448;18.904;2023-05-23T08:39:37;99387.13;;;24.64;65.65
57068;BME280;43391;47.448;18.904;2023-05-23T08:42:02;99381.91;;;24.79;62.78
57068;BME280;43391;47.448;18.904;2023-05-23T08:44:28;99383.00;;;24.93;61.70
57068;BME280;43391;47.448;18.904;2023-05-23T08:46:53;99386.81;;;24.90;61.99
57068;BME280;43391;47.448;18.904;2023-05-23T08:49:21;99385.06;;;25.06;64.59
57068;BME280;43391;47.448;18.904;2023-05-23T08:51:47;99382.09;;;25.24;61.45
57068;BME280;43391;47.448;18.904;2023-05-23T08:54:16;99384.09;;;24.99;59.63
57068;BME280;43391;47.448;18.904;2023-05-23T08:56:43;99392.78;;;25.16;61.58
57068;BME280;43391;47.448;18.904;2023-05-23T08:59:08;99396.19;;;25.25;60.27
57068;BME280;43391;47.448;18.904;2023-05-23T09:01:36;99386.28;;;25.18;61.12
57068;BME280;43391;47.448;18.904;2023-05-23T09:04:04;99389.75;;;25.42;60.23
57068;BME280;43391;47.448;18.904;2023-05-23T09:06:32;99390.97;;;25.55;61.01
57068;BME280;43391;47.448;18.904;2023-05-23T09:08:57;99395.13;;;25.34;56.24
57068;BME280;43391;47.448;18.904;2023-05-23T09:11:23;99400.00;;;25.45;57.12
57068;BME280;43391;47.448;18.904;2023-05-23T09:13:49;99385.81;;;25.53;57.93
57068;BME280;43391;47.448;18.904;2023-05-23T09:16:15;99391.50;;;25.50;55.66
57068;BME280;43391;47.448;18.904;2023-05-23T09:18:43;99390.97;;;25.55;58.04
57068;BME280;43391;47.448;18.904;2023-05-23T09:21:09;99390.34;;;25.68;55.10
57068;BME280;43391;47.448;18.904;2023-05-23T09:23:36;99387.25;;;25.79;52.14
57068;BME280;43391;47.448;18.904;2023-05-23T09:26:04;99386.03;;;25.97;55.35
57068;BME280;43391;47.448;18.904;2023-05-23T09:28:32;99387.78;;;26.05;55.50
57068;BME280;43391;47.448;18.904;2023-05-23T09:31:01;99390.63;;;26.18;55.36
57068;BME280;43391;47.448;18.904;2023-05-23T09:33:45;99393.03;;;26.28;53.29
57068;BME280;43391;47.448;18.904;2023-05-23T09:36:12;99390.00;;;26.01;54.77
57068;BME280;43391;47.448;18.904;2023-05-23T09:38:38;99385.25;;;26.26;57.03
57068;BME280;43391;47.448;18.904;2023-05-23T09:41:04;99392.09;;;26.51;54.56
57068;BME280;43391;47.448;18.904;2023-05-23T09:43:30;99387.53;;;26.66;56.08
57068;BME280;43391;47.448;18.904;2023-05-23T09:46:00;99386.34;;;26.69;54.74
57068;BME280;43391;47.448;18.904;2023-05-23T09:48:30;99377.78;;;26.74;54.65
57068;BME280;43391;47.448;18.904;2023-05-23T09:50:56;99379.50;;;26.82;54.04
57068;BME280;43391;47.448;18.904;2023-05-23T09:53:21;99369.19;;;26.57;53.92
57068;BME280;43391;47.448;18.904;2023-05-23T09:55:50;99374.66;;;26.33;55.13
57068;BME280;43391;47.448;18.904;2023-05-23T09:58:19;99379.31;;;26.46;55.46
57068;BME280;43391;47.448;18.904;2023-05-23T10:00:46;99381.63;;;26.49;54.28
57068;BME280;43391;47.448;18.904;2023-05-23T10:03:14;99382.78;;;26.25;54.94
57068;BME280;43391;47.448;18.904;2023-05-23T10:05:45;99380.28;;;25.78;56.42
57068;BME280;43391;47.448;18.904;2023-05-23T10:08:28;99381.94;;;25.41;55.67
57068;BME280;43391;47.448;18.904;2023-05-23T10:13:24;99366.25;;;25.69;54.37
57068;BME280;43391;47.448;18.904;2023-05-23T10:15:54;99360.78;;;25.71;55.50
57068;BME280;43391;47.448;18.904;2023-05-23T10:18:25;99366.06;;;26.01;53.74
57068;BME280;43391;47.448;18.904;2023-05-23T10:20:53;99362.78;;;25.84;53.91
57068;BME280;43391;47.448;18.904;2023-05-23T10:23:19;99363.78;;;25.68;54.29
57068;BME280;43391;47.448;18.904;2023-05-23T10:25:45;99353.78;;;25.55;57.00
57068;BME280;43391;47.448;18.904;2023-05-23T10:28:12;99361.66;;;25.93;58.66
57068;BME280;43391;47.448;18.904;2023-05-23T10:30:39;99354.31;;;26.40;55.84
57068;BME280;43391;47.448;18.904;2023-05-23T10:33:05;99359.16;;;26.74;54.43
57068;BME280;43391;47.448;18.904;2023-05-23T10:35:49;99350.22;;;26.60;51.03
57068;BME280;43391;47.448;18.904;2023-05-23T10:38:42;99347.22;;;26.70;50.48
57068;BME280;43391;47.448;18.904;2023-05-23T10:41:19;99349.59;;;26.58;48.56
57068;BME280;43391;47.448;18.904;2023-05-23T10:44:08;99344.13;;;26.66;53.54
57068;BME280;43391;47.448;18.904;2023-05-23T10:49:15;99348.59;;;27.02;52.91
57068;BME280;43391;47.448;18.904;2023-05-23T10:51:41;99352.28;;;26.86;54.43
57068;BME280;43391;47.448;18.904;2023-05-23T10:54:10;99355.78;;;26.43;56.95
57068;BME280;43391;47.448;18.904;2023-05-23T10:56:36;99342.50;;;26.13;56.01
57068;BME280;43391;47.448;18.904;2023-05-23T10:59:04;99340.50;;;25.85;53.80
57068;BME280;43391;47.448;18.904;2023-05-23T11:01:38;99337.19;;;26.13;54.82
57068;BME280;43391;47.448;18.904;2023-05-23T11:04:04;99329.69;;;26.53;54.57
57068;BME280;43391;47.448;18.904;2023-05-23T11:06:39;99321.50;;;26.55;53.59
57068;BME280;43391;47.448;18.904;2023-05-23T11:09:17;99325.81;;;26.34;53.08
57068;BME280;43391;47.448;18.904;2023-05-23T11:14:19;99321.25;;;25.83;51.81
57068;BME280;43391;47.448;18.904;2023-05-23T11:16:44;99324.28;;;25.80;48.21
57068;BME280;43391;47.448;18.904;2023-05-23T11:21:51;99315.22;;;26.63;46.03
57068;BME280;43391;47.448;18.904;2023-05-23T11:24:17;99318.19;;;26.75;46.95
57068;BME280;43391;47.448;18.904;2023-05-23T11:26:56;99320.31;;;27.01;46.50
57068;BME280;43391;47.448;18.904;2023-05-23T11:29:27;99314.53;;;27.19;43.18
57068;BME280;43391;47.448;18.904;2023-05-23T11:31:54;99308.88;;;27.36;41.69
57068;BME280;43391;47.448;18.904;2023-05-23T11:34:20;99307.25;;;27.64;46.86
57068;BME280;43391;47.448;18.904;2023-05-23T11:36:46;99296.31;;;28.01;44.29
57068;BME280;43391;47.448;18.904;2023-05-23T11:39:12;99300.28;;;28.11;42.41
57068;BME280;43391;47.448;18.904;2023-05-23T11:41:37;99297.38;;;28.13;43.02
57068;BME280;43391;47.448;18.904;2023-05-23T11:44:10;99286.59;;;28.42;45.06
57068;BME280;43391;47.448;18.904;2023-05-23T11:46:36;99288.63;;;28.26;42.34
57068;BME280;43391;47.448;18.904;2023-05-23T11:49:01;99283.44;;;28.11;42.89
57068;BME280;43391;47.448;18.904;2023-05-23T11:51:27;99276.91;;;28.20;41.91
57068;BME280;43391;47.448;18.904;2023-05-23T11:53:53;99270.50;;;28.01;40.85
57068;BME280;43391;47.448;18.904;2023-05-23T11:56:18;99261.47;;;28.09;43.13
57068;BME280;43391;47.448;18.904;2023-05-23T11:58:43;99262.72;;;28.06;41.08
57068;BME280;43391;47.448;18.904;2023-05-23T12:01:10;99260.25;;;28.11;40.73
57068;BME280;43391;47.448;18.904;2023-05-23T12:03:49;99257.25;;;28.28;41.62
57068;BME280;43391;47.448;18.904;2023-05-23T12:06:18;99256.16;;;28.09;42.66
57068;BME280;43391;47.448;18.904;2023-05-23T12:08:46;99252.16;;;27.78;41.80
57068;BME280;43391;47.448;18.904;2023-05-23T12:11:12;99255.81;;;27.06;42.68
57068;BME280;43391;47.448;18.904;2023-05-23T12:13:40;99250.00;;;26.74;43.87
57068;BME280;43391;47.448;18.904;2023-05-23T12:16:06;99243.69;;;26.31;44.50
57068;BME280;43391;47.448;18.904;2023-05-23T12:18:32;99242.81;;;26.24;44.81
57068;BME280;43391;47.448;18.904;2023-05-23T12:20:59;99236.41;;;26.62;45.13
57068;BME280;43391;47.448;18.904;2023-05-23T12:23:28;99233.00;;;26.97;43.82
57068;BME280;43391;47.448;18.904;2023-05-23T12:25:54;99229.47;;;27.18;47.01
57068;BME280;43391;47.448;18.904;2023-05-23T12:28:32;99228.16;;;27.42;44.32
57068;BME280;43391;47.448;18.904;2023-05-23T12:30:58;99225.09;;;27.39;42.94
57068;BME280;43391;47.448;18.904;2023-05-23T12:33:24;99218.44;;;27.63;44.42
57068;BME280;43391;47.448;18.904;2023-05-23T12:35:49;99217.97;;;28.08;43.91
57068;BME280;43391;47.448;18.904;2023-05-23T12:38:15;99215.59;;;28.27;42.87
57068;BME280;43391;47.448;18.904;2023-05-23T12:40:41;99220.19;;;27.84;42.42
57068;BME280;43391;47.448;18.904;2023-05-23T12:43:08;99214.00;;;27.35;44.03
57068;BME280;43391;47.448;18.904;2023-05-23T12:45:35;99217.22;;;27.24;43.74
57068;BME280;43391;47.448;18.904;2023-05-23T12:48:04;99204.09;;;27.64;47.26
57068;BME280;43391;47.448;18.904;2023-05-23T12:50:30;99211.38;;;28.04;41.91
57068;BME280;43391;47.448;18.904;2023-05-23T12:52:56;99208.00;;;28.37;41.88
57068;BME280;43391;47.448;18.904;2023-05-23T12:55:21;99200.59;;;28.60;39.42
57068;BME280;43391;47.448;18.904;2023-05-23T12:57:47;99195.47;;;28.72;39.09
57068;BME280;43391;47.448;18.904;2023-05-23T13:00:13;99196.25;;;28.86;38.83
57068;BME280;43391;47.448;18.904;2023-05-23T13:02:38;99191.53;;;29.15;38.91